createdAt,value
2022-12-10T00:02:16.267Z,-1.30
2022-12-10T00:04:47.779Z,-1.40
2022-12-10T00:07:15.701Z,-1.40
2022-12-10T00:09:42.235Z,-1.40
2022-12-10T00:12:08.708Z,-1.40
2022-12-10T00:14:35.226Z,-1.40
2022-12-10T00:17:01.749Z,-1.50
2022-12-10T00:19:28.348Z,-1.50
2022-12-10T00:21:54.883Z,-1.50
2022-12-10T00:24:21.393Z,-1.40
2022-12-10T00:26:47.905Z,-1.50
2022-12-10T00:29:14.446Z,-1.40
2022-12-10T00:31:41.130Z,-1.40
2022-12-10T00:34:07.751Z,-1.40
2022-12-10T00:36:34.213Z,-1.40
2022-12-10T00:39:00.741Z,-1.40
2022-12-10T00:41:27.281Z,-1.40
2022-12-10T00:43:53.775Z,-1.40
2022-12-10T00:46:20.484Z,-1.40
2022-12-10T00:48:47.087Z,-1.40
2022-12-10T00:51:13.593Z,-1.50
2022-12-10T00:53:40.168Z,-1.70
2022-12-10T00:56:06.661Z,-1.70
2022-12-10T00:58:33.249Z,-1.70
2022-12-10T01:00:59.793Z,-1.70
2022-12-10T01:03:26.895Z,-1.80
2022-12-10T01:05:53.430Z,-1.90
2022-12-10T01:08:19.972Z,-2.10
2022-12-10T01:10:46.569Z,-2.10
2022-12-10T01:13:13.063Z,-2.20
2022-12-10T01:15:40.150Z,-2.20
2022-12-10T01:18:06.680Z,-2.20
2022-12-10T01:20:33.196Z,-2.10
2022-12-10T01:22:59.801Z,-2.10
2022-12-10T01:25:26.286Z,-2.10
2022-12-10T01:27:52.937Z,-2.10
2022-12-10T01:30:19.682Z,-2.00
2022-12-10T01:32:46.165Z,-2.10
2022-12-10T01:35:12.676Z,-2.10
2022-12-10T01:37:39.163Z,-2.10
2022-12-10T01:40:05.868Z,-2.10
2022-12-10T01:42:32.587Z,-2.10
2022-12-10T01:44:59.125Z,-2.20
2022-12-10T01:47:25.629Z,-2.10
2022-12-10T01:49:52.163Z,-2.10
2022-12-10T01:52:18.663Z,-2.10
2022-12-10T01:54:45.393Z,-2.10
2022-12-10T01:57:12.009Z,-2.10
2022-12-10T01:59:38.551Z,-2.10
2022-12-10T02:02:05.302Z,-2.10
2022-12-10T02:04:31.908Z,-2.20
2022-12-10T02:06:58.489Z,-2.30
2022-12-10T02:09:25.015Z,-2.30
2022-12-10T02:11:51.527Z,-2.30
2022-12-10T02:14:18.030Z,-2.20
2022-12-10T02:16:44.561Z,-2.20
2022-12-10T02:19:11.112Z,-2.20
2022-12-10T02:21:37.725Z,-2.10
2022-12-10T02:24:05.437Z,-2.10
2022-12-10T02:26:32.048Z,-2.10
2022-12-10T02:28:58.606Z,-2.10
2022-12-10T02:31:25.342Z,-2.00
2022-12-10T02:33:51.926Z,-2.00
2022-12-10T02:36:18.464Z,-1.90
2022-12-10T02:38:44.943Z,-1.90
2022-12-10T02:41:11.470Z,-1.90
2022-12-10T02:43:38.141Z,-1.80
2022-12-10T02:46:04.848Z,-1.80
2022-12-10T02:48:31.464Z,-1.80
2022-12-10T02:50:58.058Z,-1.80
2022-12-10T02:53:24.540Z,-1.70
2022-12-10T02:55:51.115Z,-1.70
2022-12-10T02:58:17.604Z,-1.70
2022-12-10T03:00:44.098Z,-1.60
2022-12-10T03:03:10.748Z,-1.70
2022-12-10T03:05:37.311Z,-1.70
2022-12-10T03:08:03.916Z,-1.70
2022-12-10T03:10:30.538Z,-1.80
2022-12-10T03:12:57.041Z,-1.70
2022-12-10T03:15:23.587Z,-1.70
2022-12-10T03:17:50.167Z,-1.70
2022-12-10T03:20:16.768Z,-1.70
2022-12-10T03:22:43.267Z,-1.70
2022-12-10T03:25:09.803Z,-1.70
2022-12-10T03:27:36.298Z,-1.60
2022-12-10T03:30:02.844Z,-1.60
2022-12-10T03:32:29.405Z,-1.60
2022-12-10T03:34:55.930Z,-1.60
2022-12-10T03:37:22.451Z,-1.60
2022-12-10T03:39:48.911Z,-1.70
2022-12-10T03:42:15.436Z,-1.70
2022-12-10T03:44:42.070Z,-1.60
2022-12-10T03:47:09.148Z,-1.50
2022-12-10T03:49:35.625Z,-1.50
2022-12-10T03:52:02.116Z,-1.50
2022-12-10T03:54:28.593Z,-1.50
2022-12-10T03:56:55.299Z,-1.40
2022-12-10T03:59:21.781Z,-1.40
2022-12-10T04:01:48.299Z,-1.30
2022-12-10T04:04:14.901Z,-1.30
2022-12-10T04:06:41.485Z,-1.30
2022-12-10T04:09:08.006Z,-1.30
2022-12-10T04:11:34.498Z,-1.30
2022-12-10T04:14:19.912Z,-1.40
2022-12-10T04:16:46.438Z,-1.40
2022-12-10T04:19:12.998Z,-1.40
2022-12-10T04:21:58.492Z,-1.40
2022-12-10T04:24:43.864Z,-1.40
2022-12-10T04:27:10.385Z,-1.40
2022-12-10T04:29:36.872Z,-1.40
2022-12-10T04:32:03.348Z,-1.40
2022-12-10T04:34:29.835Z,-1.40
2022-12-10T04:36:56.339Z,-1.40
2022-12-10T04:39:22.835Z,-1.40
2022-12-10T04:41:49.438Z,-1.30
2022-12-10T04:44:15.914Z,-1.30
2022-12-10T04:46:42.450Z,-1.30
2022-12-10T04:49:08.952Z,-1.30
2022-12-10T04:51:35.426Z,-1.40
2022-12-10T04:54:02.013Z,-1.40
2022-12-10T04:56:28.488Z,-1.40
2022-12-10T04:58:55.009Z,-1.40
2022-12-10T05:01:21.510Z,-1.40
2022-12-10T05:03:48.077Z,-1.50
2022-12-10T05:06:14.607Z,-1.50
2022-12-10T05:08:41.141Z,-1.50
2022-12-10T05:11:07.695Z,-1.50
2022-12-10T05:13:34.193Z,-1.50
2022-12-10T05:16:00.698Z,-1.50
2022-12-10T05:18:27.257Z,-1.50
2022-12-10T05:20:53.784Z,-1.50
2022-12-10T05:23:29.417Z,-1.60
2022-12-10T05:25:55.901Z,-1.70
2022-12-10T05:28:22.477Z,-1.80
2022-12-10T05:30:49.088Z,-1.80
2022-12-10T05:33:15.629Z,-1.70
2022-12-10T05:35:42.105Z,-1.70
2022-12-10T05:38:08.589Z,-1.70
2022-12-10T05:40:35.056Z,-1.60
2022-12-10T05:43:01.553Z,-1.60
2022-12-10T05:45:28.060Z,-1.70
2022-12-10T05:47:54.618Z,-1.70
2022-12-10T05:50:21.141Z,-1.70
2022-12-10T05:52:47.632Z,-1.70
2022-12-10T05:55:14.130Z,-1.80
2022-12-10T05:57:40.602Z,-1.80
2022-12-10T06:00:07.494Z,-1.80
2022-12-10T06:02:34.316Z,-1.70
2022-12-10T06:05:00.888Z,-1.70
2022-12-10T06:07:27.450Z,-1.70
2022-12-10T06:09:53.910Z,-1.70
2022-12-10T06:12:20.389Z,-1.70
2022-12-10T06:14:46.859Z,-1.60
2022-12-10T06:17:13.387Z,-1.70
2022-12-10T06:19:39.881Z,-1.70
2022-12-10T06:22:06.340Z,-1.70
2022-12-10T06:24:32.802Z,-1.80
2022-12-10T06:26:59.299Z,-1.90
2022-12-10T06:29:25.764Z,-2.00
2022-12-10T06:31:52.318Z,-2.10
2022-12-10T06:34:18.789Z,-2.10
2022-12-10T06:36:45.255Z,-2.00
2022-12-10T06:39:11.795Z,-2.10
2022-12-10T06:41:38.355Z,-2.00
2022-12-10T06:44:04.838Z,-2.00
2022-12-10T06:46:31.323Z,-2.00
2022-12-10T06:48:58.049Z,-2.00
2022-12-10T06:51:24.531Z,-2.00
2022-12-10T06:53:51.008Z,-2.00
2022-12-10T06:56:17.535Z,-2.00
2022-12-10T06:58:44.831Z,-2.00
2022-12-10T07:01:11.371Z,-2.00
2022-12-10T07:03:37.876Z,-2.10
2022-12-10T07:06:04.354Z,-2.00
2022-12-10T07:08:31.052Z,-2.00
2022-12-10T07:10:57.539Z,-2.00
2022-12-10T07:13:29.835Z,-2.00
2022-12-10T07:15:57.224Z,-2.00
2022-12-10T07:18:23.799Z,-1.90
2022-12-10T07:20:50.292Z,-1.90
2022-12-10T07:23:16.770Z,-1.90
2022-12-10T07:25:43.333Z,-1.90
2022-12-10T07:28:09.844Z,-1.80
2022-12-10T07:30:36.320Z,-1.80
2022-12-10T07:33:02.858Z,-1.80
2022-12-10T07:35:29.349Z,-1.80
2022-12-10T07:37:55.829Z,-1.70
2022-12-10T07:40:22.395Z,-1.80
2022-12-10T07:42:48.917Z,-1.80
2022-12-10T07:45:15.476Z,-1.80
2022-12-10T07:47:41.939Z,-1.80
2022-12-10T07:50:08.729Z,-1.80
2022-12-10T07:52:35.498Z,-1.80
2022-12-10T07:55:02.029Z,-1.80
2022-12-10T07:57:28.527Z,-1.70
2022-12-10T07:59:55.004Z,-1.70
2022-12-10T08:02:21.494Z,-1.70
2022-12-10T08:04:47.961Z,-1.70
2022-12-10T08:07:14.522Z,-1.70
2022-12-10T08:09:41.205Z,-1.70
2022-12-10T08:12:07.668Z,-1.80
2022-12-10T08:14:34.422Z,-1.80
2022-12-10T08:17:00.923Z,-1.80
2022-12-10T08:19:31.654Z,-1.80
2022-12-10T08:21:58.528Z,-1.80
2022-12-10T08:24:25.014Z,-1.90
2022-12-10T08:26:51.490Z,-1.90
2022-12-10T08:29:17.976Z,-2.00
2022-12-10T08:31:44.519Z,-2.00
2022-12-10T08:34:11.104Z,-2.10
2022-12-10T08:36:37.568Z,-2.10
2022-12-10T08:39:04.063Z,-2.20
2022-12-10T08:41:30.540Z,-2.20
2022-12-10T08:43:57.091Z,-2.30
2022-12-10T08:46:24.147Z,-2.30
2022-12-10T08:48:50.638Z,-2.40
2022-12-10T08:51:17.165Z,-2.30
2022-12-10T08:53:43.820Z,-2.40
2022-12-10T08:56:10.273Z,-2.40
2022-12-10T08:58:36.825Z,-2.40
2022-12-10T09:01:03.338Z,-2.40
2022-12-10T09:03:29.950Z,-2.40
2022-12-10T09:05:56.439Z,-2.40
2022-12-10T09:08:22.948Z,-2.40
2022-12-10T09:10:49.534Z,-2.50
2022-12-10T09:13:16.064Z,-2.60
2022-12-10T09:15:42.569Z,-2.60
2022-12-10T09:18:09.034Z,-2.50
2022-12-10T09:20:36.331Z,-2.60
2022-12-10T09:23:02.854Z,-2.50
2022-12-10T09:25:29.359Z,-2.50
2022-12-10T09:27:55.815Z,-2.40
2022-12-10T09:30:22.357Z,-2.40
2022-12-10T09:32:48.951Z,-2.40
2022-12-10T09:35:15.470Z,-2.40
2022-12-10T09:37:41.947Z,-2.30
2022-12-10T09:40:08.759Z,-2.30
2022-12-10T09:42:35.588Z,-2.20
2022-12-10T09:45:02.135Z,-2.20
2022-12-10T09:47:28.725Z,-2.30
2022-12-10T09:49:55.313Z,-2.30
2022-12-10T09:52:21.783Z,-2.30
2022-12-10T09:54:48.277Z,-2.40
2022-12-10T09:57:14.747Z,-2.40
2022-12-10T09:59:41.322Z,-2.50
2022-12-10T10:02:07.859Z,-2.50
2022-12-10T10:04:34.406Z,-2.50
2022-12-10T10:07:00.893Z,-2.40
2022-12-10T10:09:27.380Z,-2.30
2022-12-10T10:11:53.933Z,-2.30
2022-12-10T10:14:20.432Z,-2.20
2022-12-10T10:16:49.508Z,-2.10
2022-12-10T10:19:16.066Z,-2.10
2022-12-10T10:21:42.544Z,-2.10
2022-12-10T10:24:12.164Z,-2.10
2022-12-10T10:26:38.836Z,-2.20
2022-12-10T10:29:05.344Z,-2.10
2022-12-10T10:31:31.838Z,-2.10
2022-12-10T10:33:58.412Z,-2.20
2022-12-10T10:36:25.299Z,-2.30
2022-12-10T10:38:51.772Z,-2.40
2022-12-10T10:41:18.281Z,-2.30
2022-12-10T10:43:48.427Z,-2.30
2022-12-10T10:46:15.030Z,-2.20
2022-12-10T10:48:41.614Z,-2.20
2022-12-10T10:51:08.147Z,-2.30
2022-12-10T10:53:34.651Z,-2.20
2022-12-10T10:56:01.203Z,-2.20
2022-12-10T10:58:27.780Z,-2.20
2022-12-10T11:00:54.333Z,-2.10
2022-12-10T11:03:20.848Z,-2.10
2022-12-10T11:05:47.326Z,-2.00
2022-12-10T11:08:13.892Z,-2.00
2022-12-10T11:10:40.472Z,-1.90
2022-12-10T11:13:07.105Z,-1.90
2022-12-10T11:15:34.213Z,-1.80
2022-12-10T11:18:00.706Z,-1.80
2022-12-10T11:20:27.198Z,-1.80
2022-12-10T11:22:53.659Z,-1.80
2022-12-10T11:25:20.169Z,-1.90
2022-12-10T11:27:46.701Z,-1.90
2022-12-10T11:30:13.214Z,-1.90
2022-12-10T11:32:39.695Z,-1.90
2022-12-10T11:35:06.144Z,-1.80
2022-12-10T11:37:35.205Z,-1.80
2022-12-10T11:40:02.061Z,-1.80
2022-12-10T11:42:28.528Z,-1.70
2022-12-10T11:44:54.972Z,-1.70
2022-12-10T11:47:21.473Z,-1.60
2022-12-10T11:49:48.023Z,-1.70
2022-12-10T11:52:14.461Z,-1.70
2022-12-10T11:54:40.945Z,-1.70
2022-12-10T11:57:07.438Z,-1.80
2022-12-10T12:00:02.903Z,-1.80
2022-12-10T12:02:23.253Z,-1.80
2022-12-10T12:04:49.917Z,-1.80
2022-12-10T12:07:16.417Z,-1.80
2022-12-10T12:09:42.865Z,-1.80
2022-12-10T12:12:09.305Z,-1.90
2022-12-10T12:14:35.819Z,-1.80
2022-12-10T12:17:02.383Z,-1.70
2022-12-10T12:19:28.900Z,-1.70
2022-12-10T12:21:55.497Z,-1.60
2022-12-10T12:24:22.007Z,-1.60
2022-12-10T12:26:48.494Z,-1.40
2022-12-10T12:29:15.016Z,-1.40
2022-12-10T12:31:41.543Z,-1.40
2022-12-10T12:34:08.000Z,-1.40
2022-12-10T12:36:35.169Z,-1.40
2022-12-10T12:39:01.661Z,-1.30
2022-12-10T12:41:28.280Z,-1.30
2022-12-10T12:43:54.780Z,-1.30
2022-12-10T12:46:21.210Z,-1.30
2022-12-10T12:48:47.740Z,-1.20
2022-12-10T12:51:14.178Z,-1.10
2022-12-10T12:53:40.622Z,-1.10
2022-12-10T12:56:07.319Z,-1.00
2022-12-10T12:58:33.792Z,-1.00
2022-12-10T13:01:00.236Z,-1.00
2022-12-10T13:03:26.776Z,-1.00
2022-12-10T13:05:53.233Z,-1.00
2022-12-10T13:08:19.839Z,-1.10
2022-12-10T13:10:46.451Z,-1.10
2022-12-10T13:13:12.900Z,-1.10
2022-12-10T13:15:39.414Z,-1.10
2022-12-10T13:18:05.878Z,-1.10
2022-12-10T13:20:32.333Z,-1.10
2022-12-10T13:22:58.769Z,-1.00
2022-12-10T13:25:25.189Z,-1.10
2022-12-10T13:27:51.685Z,-1.10
2022-12-10T13:30:18.134Z,-1.00
2022-12-10T13:32:44.648Z,-1.00
2022-12-10T13:35:11.229Z,-1.00
2022-12-10T13:37:39.171Z,-1.00
2022-12-10T13:40:05.624Z,-1.00
2022-12-10T13:42:51.058Z,-1.00
2022-12-10T13:45:17.474Z,-0.90
2022-12-10T13:47:43.914Z,-1.00
2022-12-10T13:50:10.507Z,-1.00
2022-12-10T13:52:37.080Z,-0.90
2022-12-10T13:55:03.620Z,-1.00
2022-12-10T13:57:30.128Z,-1.00
2022-12-10T13:59:56.746Z,-1.00
2022-12-10T14:02:23.293Z,-1.00
2022-12-10T14:04:49.773Z,-0.90
2022-12-10T14:07:16.241Z,-0.90
2022-12-10T14:09:42.711Z,-0.90
2022-12-10T14:12:09.186Z,-0.90
2022-12-10T14:14:35.773Z,-0.90
2022-12-10T14:17:06.147Z,-0.90
2022-12-10T14:19:33.039Z,-0.90
2022-12-10T14:21:59.543Z,-1.00
2022-12-10T14:24:26.095Z,-1.00
2022-12-10T14:26:52.608Z,-1.10
2022-12-10T14:29:22.755Z,-1.10
2022-12-10T14:31:52.231Z,-1.20
2022-12-10T14:34:18.710Z,-1.20
2022-12-10T14:36:45.205Z,-1.10
2022-12-10T14:39:11.792Z,-1.10
2022-12-10T14:41:41.043Z,-1.10
2022-12-10T14:44:07.693Z,-1.00
2022-12-10T14:46:34.506Z,-1.00
2022-12-10T14:49:01.096Z,-1.00
2022-12-10T14:51:27.702Z,-1.00
2022-12-10T14:53:54.194Z,-1.00
2022-12-10T14:56:20.700Z,-1.00
2022-12-10T14:58:47.229Z,-1.00
2022-12-10T15:01:16.804Z,-1.00
2022-12-10T15:03:44.178Z,-1.00
2022-12-10T15:06:10.700Z,-1.00
2022-12-10T15:08:37.185Z,-1.00
2022-12-10T15:11:03.662Z,-1.00
2022-12-10T15:13:30.187Z,-1.00
2022-12-10T15:15:56.771Z,-1.00
2022-12-10T15:18:23.319Z,-0.90
2022-12-10T15:20:50.279Z,-1.00
2022-12-10T15:23:17.841Z,-0.90
2022-12-10T15:25:44.314Z,-0.90
2022-12-10T15:28:10.845Z,-0.90
2022-12-10T15:30:38.344Z,-0.90
2022-12-10T15:33:04.850Z,-0.90
2022-12-10T15:35:31.479Z,-1.00
2022-12-10T15:38:00.059Z,-0.90
2022-12-10T15:40:27.054Z,-1.00
2022-12-10T15:42:53.543Z,-1.00
2022-12-10T15:45:20.053Z,-1.10
2022-12-10T15:47:46.510Z,-1.10
2022-12-10T15:50:13.201Z,-1.20
2022-12-10T15:52:39.828Z,-1.20
2022-12-10T15:55:06.417Z,-1.20
2022-12-10T15:57:34.209Z,-1.30
2022-12-10T16:00:00.854Z,-1.30
2022-12-10T16:02:28.511Z,-1.30
2022-12-10T16:04:55.672Z,-1.30
2022-12-10T16:07:25.193Z,-1.30
2022-12-10T16:09:54.724Z,-1.30
2022-12-10T16:12:21.824Z,-1.20
2022-12-10T16:14:48.689Z,-1.20
2022-12-10T16:17:15.591Z,-1.10
2022-12-10T16:19:45.627Z,-1.10
2022-12-10T16:22:12.361Z,-1.00
2022-12-10T16:24:43.552Z,-0.90
2022-12-10T16:27:11.683Z,-0.90
2022-12-10T16:29:38.221Z,-0.90
2022-12-10T16:32:04.757Z,-0.80
2022-12-10T16:34:31.310Z,-0.80
2022-12-10T16:36:57.803Z,-0.90
2022-12-10T16:39:29.240Z,-0.90
2022-12-10T16:41:57.397Z,-0.90
2022-12-10T16:44:23.891Z,-1.00
2022-12-10T16:46:50.355Z,-1.00
2022-12-10T16:49:16.857Z,-1.10
2022-12-10T16:51:44.085Z,-1.10
2022-12-10T16:54:11.081Z,-1.10
2022-12-10T16:56:37.553Z,-1.20
2022-12-10T16:59:04.071Z,-1.20
2022-12-10T17:01:31.769Z,-1.20
2022-12-10T17:03:59.122Z,-1.20
2022-12-10T17:06:25.654Z,-1.20
2022-12-10T17:08:52.109Z,-1.20
2022-12-10T17:11:37.517Z,-1.20
2022-12-10T17:14:03.979Z,-1.20
2022-12-10T17:16:30.509Z,-1.30
2022-12-10T17:18:57.025Z,-1.30
2022-12-10T17:21:23.604Z,-1.30
2022-12-10T17:23:50.045Z,-1.30
2022-12-10T17:26:16.522Z,-1.30
2022-12-10T17:28:43.027Z,-1.30
2022-12-10T17:31:09.547Z,-1.30
2022-12-10T17:33:35.991Z,-1.30
2022-12-10T17:36:02.695Z,-1.30
2022-12-10T17:38:29.195Z,-1.40
2022-12-10T17:40:55.768Z,-1.40
2022-12-10T17:45:50.116Z,-1.40
2022-12-10T17:48:16.604Z,-1.40
2022-12-10T17:50:44.860Z,-1.40
2022-12-10T17:53:15.049Z,-1.50
2022-12-10T17:55:46.646Z,-1.50
2022-12-10T17:58:14.885Z,-1.50
2022-12-10T18:00:41.962Z,-1.50
2022-12-10T18:03:08.420Z,-1.50
2022-12-10T18:05:35.701Z,-1.60
2022-12-10T18:08:02.242Z,-1.60
2022-12-10T18:10:29.695Z,-1.60
2022-12-10T18:12:56.158Z,-1.50
2022-12-10T18:15:22.635Z,-1.50
2022-12-10T18:17:49.203Z,-1.50
2022-12-10T18:20:15.668Z,-1.40
2022-12-10T18:22:42.187Z,-1.40
2022-12-10T18:25:08.936Z,-1.40
2022-12-10T18:27:35.704Z,-1.30
2022-12-10T18:30:02.298Z,-1.30
2022-12-10T18:32:28.766Z,-1.30
2022-12-10T18:34:55.227Z,-1.30
2022-12-10T18:37:21.890Z,-1.30
2022-12-10T18:39:48.386Z,-1.30
2022-12-10T18:42:14.915Z,-1.20
2022-12-10T18:44:42.098Z,-1.20
2022-12-10T18:47:08.581Z,-1.20
2022-12-10T18:49:35.703Z,-1.20
2022-12-10T18:52:02.174Z,-1.20
2022-12-10T18:54:28.681Z,-1.20
2022-12-10T18:57:31.249Z,-1.20
2022-12-10T18:59:41.625Z,-1.20
2022-12-10T19:02:08.144Z,-1.20
2022-12-10T19:04:34.760Z,-1.20
2022-12-10T19:07:01.592Z,-1.30
2022-12-10T19:09:32.308Z,-1.30
2022-12-10T19:11:59.287Z,-1.40
2022-12-10T19:14:25.781Z,-1.30
2022-12-10T19:16:52.289Z,-1.30
2022-12-10T19:19:18.749Z,-1.30
2022-12-10T19:21:45.254Z,-1.30
2022-12-10T19:24:11.836Z,-1.30
2022-12-10T19:26:38.413Z,-1.20
2022-12-10T19:29:05.173Z,-1.20
2022-12-10T19:31:31.673Z,-1.20
2022-12-10T19:33:58.150Z,-1.30
2022-12-10T19:36:24.644Z,-1.30
2022-12-10T19:38:51.228Z,-1.30
2022-12-10T19:41:17.776Z,-1.20
2022-12-10T19:43:44.328Z,-1.30
2022-12-10T19:46:10.844Z,-1.30
2022-12-10T19:48:37.322Z,-1.30
2022-12-10T19:51:03.828Z,-1.30
2022-12-10T19:53:30.383Z,-1.30
2022-12-10T19:55:56.841Z,-1.30
2022-12-10T19:58:23.384Z,-1.30
2022-12-10T20:00:49.901Z,-1.30
2022-12-10T20:03:16.380Z,-1.30
2022-12-10T20:05:42.993Z,-1.30
2022-12-10T20:08:09.515Z,-1.30
2022-12-10T20:10:36.043Z,-1.30
2022-12-10T20:13:02.520Z,-1.30
2022-12-10T20:15:29.060Z,-1.30
2022-12-10T20:17:55.590Z,-1.30
2022-12-10T20:20:22.061Z,-1.20
2022-12-10T20:22:48.747Z,-1.20
2022-12-10T20:25:15.313Z,-1.30
2022-12-10T20:27:42.197Z,-1.30
2022-12-10T20:30:08.699Z,-1.30
2022-12-10T20:32:35.166Z,-1.30
2022-12-10T20:35:01.623Z,-1.30
2022-12-10T20:37:29.706Z,-1.30
2022-12-10T20:40:29.302Z,-1.30
2022-12-10T20:42:42.747Z,-1.30
2022-12-10T20:45:09.569Z,-1.30
2022-12-10T20:47:39.805Z,-1.30
2022-12-10T20:50:09.383Z,-1.30
2022-12-10T20:52:36.457Z,-1.30
2022-12-10T20:55:02.988Z,-1.30
2022-12-10T20:57:29.486Z,-1.30
2022-12-10T20:59:55.951Z,-1.40
2022-12-10T21:02:22.481Z,-1.30
2022-12-10T21:04:49.063Z,-1.30
2022-12-10T21:07:15.818Z,-1.30
2022-12-10T21:09:42.315Z,-1.30
2022-12-10T21:12:08.831Z,-1.40
2022-12-10T21:17:21.806Z,-1.30
2022-12-10T21:19:48.355Z,-1.30
2022-12-10T21:22:15.054Z,-1.30
2022-12-10T21:24:41.567Z,-1.20
2022-12-10T21:27:08.127Z,-1.20
2022-12-10T21:29:34.635Z,-1.10
2022-12-10T21:32:01.160Z,-1.10
2022-12-10T21:34:27.708Z,-1.00
2022-12-10T21:36:54.373Z,-1.00
2022-12-10T21:39:25.085Z,-1.00
2022-12-10T21:42:11.025Z,-1.00
2022-12-10T21:44:37.487Z,-0.90
2022-12-10T21:47:04.029Z,-0.90
2022-12-10T21:49:30.527Z,-1.00
2022-12-10T21:51:57.018Z,-0.90
2022-12-10T21:54:23.548Z,-1.00
2022-12-10T21:56:49.995Z,-1.00
2022-12-10T21:59:16.496Z,-0.90
2022-12-10T22:01:42.994Z,-0.80
2022-12-10T22:04:12.959Z,-0.80
2022-12-10T22:06:42.249Z,-0.80
2022-12-10T22:09:08.724Z,-0.80
2022-12-10T22:11:35.238Z,-0.70
2022-12-10T22:14:01.700Z,-0.70
2022-12-10T22:16:28.230Z,-0.70
2022-12-10T22:18:54.725Z,-0.70
2022-12-10T22:21:23.589Z,-0.70
2022-12-10T22:23:50.534Z,-0.60
2022-12-10T22:26:17.065Z,-0.60
2022-12-10T22:28:43.548Z,-0.70
2022-12-10T22:31:10.133Z,-0.70
2022-12-10T22:33:36.621Z,-0.70
2022-12-10T22:36:03.085Z,-0.80
2022-12-10T22:38:29.848Z,-0.80
2022-12-10T22:40:56.363Z,-0.90
2022-12-10T22:43:52.430Z,-0.90
2022-12-10T22:46:09.559Z,-0.90
2022-12-10T22:48:36.096Z,-0.90
2022-12-10T22:51:02.677Z,-0.90
2022-12-10T22:53:29.356Z,-0.90
2022-12-10T22:55:55.834Z,-0.90
2022-12-10T22:58:22.307Z,-0.90
2022-12-10T23:00:48.874Z,-0.90
2022-12-10T23:03:15.395Z,-0.90
2022-12-10T23:05:41.890Z,-0.90
2022-12-10T23:08:08.359Z,-0.80
2022-12-10T23:10:34.876Z,-0.80
2022-12-10T23:13:07.551Z,-0.80
2022-12-10T23:15:34.072Z,-0.90
2022-12-10T23:18:00.542Z,-0.80
2022-12-10T23:20:27.044Z,-0.80
2022-12-10T23:22:53.520Z,-0.80
2022-12-10T23:25:20.096Z,-0.80
2022-12-10T23:27:46.687Z,-0.80
2022-12-10T23:30:13.325Z,-0.90
2022-12-10T23:32:39.793Z,-0.90
2022-12-10T23:35:06.255Z,-0.90
2022-12-10T23:37:32.713Z,-0.90
2022-12-10T23:39:59.300Z,-0.90
2022-12-10T23:42:25.767Z,-0.90
2022-12-10T23:44:52.238Z,-0.90
2022-12-10T23:47:18.725Z,-0.90
2022-12-10T23:49:45.219Z,-0.90
2022-12-10T23:54:45.986Z,-0.90
2022-12-10T23:57:12.465Z,-0.90
2022-12-10T23:59:38.948Z,-0.90
